Eutaw, North Carolina
Current Conditions -  °F | °C
As of 5:58 AM on Thursday 23 Oct 2014 (Local Time) from KPOB Reporting Station
Clear Clear  
Wind Chill: 41°   Ceiling: Unl
Heat Index: 43°   Visibility: 10mi
Dew Point: 40°   Wind: 5mph
Humidity: 88%   Direction: 310°NW
Pressure: 30.03"   Gusts: NA
Location:  35.0916°N, 79.0106°W
Report Text: KPOB 230958Z AUTO 31004KT 10SM CLR 06/05 A3003 RMK AO2 SLP172 T00630045
Loading
Personal Weather Stations






























Interactive Weather Map
Tropical Storm Tracking
New forecast layout! Learn more

10-Day Weather Forecast

Advertisements
Track Severe Weather on mobile